KSMQ

Somerset Airport

Somerville, New Jersey, USA
METAR KSMQ 181338Z AUTO 35003KT 2 1/2SM -SN BR OVC010 M02/M03 A3010 RMK AO2 SNB23 P0000 T10171033
Observed Flight Rules
Jan-18 @ 13:38 UTC (33 minutes ago) Instrument Flight Rules
Wind Visibility Clouds Conditions
350° at 3 knots 2 1/2 miles
  • Overcast at 1,000' AGL
  • Light Snow
  • Mist
Temperatures Readings Precipitation
Current -2°C / 28°F
Dewpoint -3°C / 27°F
Humidity 93%
Altimeter 30.1" Hg
Pressure 1019.32 hPa
Elevation 30
Current Rain 0.01
METAR KSMQ 181338Z AUTO 35003KT 2 1/2SM -SN BR OVC010 M02/M03 A3010 RMK AO2 SNB23 P0000 T10171033
Observed Flight Rules
Jan-18 @ 13:38 UTC
(33 minutes ago)
IFR
Wind Visibility
350° at 3 knots 2 1/2 miles
Clouds
  • Overcast at 1,000' AGL
Conditions
  • Light Snow
  • Mist
Temperature Dewpoint
-2°C / 28°F -3°C / 27°F
Humidity Altimeter Pressure
93% 30.1" Hg 1019.32 hPa
Current Rain
0.01